sensor_id;sensor_type;location;lat;lon;timestamp;P1;durP1;ratioP1;P2;durP2;ratioP2
71771;SDS011;59606;52.138;5.424;2022-09-09T00:04:03;4.35;;;0.88;;
71771;SDS011;59606;52.138;5.424;2022-09-09T00:09:26;1.93;;;0.70;;
71771;SDS011;59606;52.138;5.424;2022-09-09T00:11:58;2.67;;;1.08;;
71771;SDS011;59606;52.138;5.424;2022-09-09T00:14:38;3.55;;;0.85;;
71771;SDS011;59606;52.138;5.424;2022-09-09T00:17:41;1.73;;;0.70;;
71771;SDS011;59606;52.138;5.424;2022-09-09T00:22:53;1.70;;;0.70;;
71771;SDS011;59606;52.138;5.424;2022-09-09T00:25:31;2.60;;;1.00;;
71771;SDS011;59606;52.138;5.424;2022-09-09T00:28:07;2.35;;;1.10;;
71771;SDS011;59606;52.138;5.424;2022-09-09T00:30:43;2.67;;;0.85;;
71771;SDS011;59606;52.138;5.424;2022-09-09T00:33:11;2.67;;;1.10;;
71771;SDS011;59606;52.138;5.424;2022-09-09T00:35:44;2.07;;;0.80;;
71771;SDS011;59606;52.138;5.424;2022-09-09T00:44:03;5.18;;;1.40;;
71771;SDS011;59606;52.138;5.424;2022-09-09T00:52:32;3.08;;;1.42;;
71771;SDS011;59606;52.138;5.424;2022-09-09T00:57:44;3.92;;;1.50;;
71771;SDS011;59606;52.138;5.424;2022-09-09T01:00:17;4.30;;;1.38;;
71771;SDS011;59606;52.138;5.424;2022-09-09T01:06:02;5.78;;;2.10;;
71771;SDS011;59606;52.138;5.424;2022-09-09T01:09:04;6.00;;;1.90;;
71771;SDS011;59606;52.138;5.424;2022-09-09T01:12:24;3.35;;;1.60;;
71771;SDS011;59606;52.138;5.424;2022-09-09T01:16:58;3.90;;;1.47;;
71771;SDS011;59606;52.138;5.424;2022-09-09T01:24:46;6.90;;;1.80;;
71771;SDS011;59606;52.138;5.424;2022-09-09T01:27:36;3.58;;;2.00;;
71771;SDS011;59606;52.138;5.424;2022-09-09T01:30:13;2.50;;;1.50;;
71771;SDS011;59606;52.138;5.424;2022-09-09T01:32:46;4.95;;;1.75;;
71771;SDS011;59606;52.138;5.424;2022-09-09T01:37:56;4.70;;;2.05;;
71771;SDS011;59606;52.138;5.424;2022-09-09T01:40:23;5.47;;;1.85;;
71771;SDS011;59606;52.138;5.424;2022-09-09T01:42:57;4.83;;;2.03;;
71771;SDS011;59606;52.138;5.424;2022-09-09T01:45:24;4.80;;;2.35;;
71771;SDS011;59606;52.138;5.424;2022-09-09T01:47:51;8.05;;;2.20;;
71771;SDS011;59606;52.138;5.424;2022-09-09T01:50:19;6.50;;;2.28;;
71771;SDS011;59606;52.138;5.424;2022-09-09T01:52:48;6.45;;;2.33;;
71771;SDS011;59606;52.138;5.424;2022-09-09T01:55:19;8.50;;;2.33;;
71771;SDS011;59606;52.138;5.424;2022-09-09T02:00:21;5.53;;;2.50;;
71771;SDS011;59606;52.138;5.424;2022-09-09T02:05:41;6.65;;;2.53;;
71771;SDS011;59606;52.138;5.424;2022-09-09T02:08:16;4.80;;;2.30;;
71771;SDS011;59606;52.138;5.424;2022-09-09T02:13:19;5.53;;;2.70;;
71771;SDS011;59606;52.138;5.424;2022-09-09T02:15:52;8.02;;;2.40;;
71771;SDS011;59606;52.138;5.424;2022-09-09T02:18:35;6.30;;;2.88;;
71771;SDS011;59606;52.138;5.424;2022-09-09T02:21:07;6.03;;;3.13;;
71771;SDS011;59606;52.138;5.424;2022-09-09T02:23:34;5.38;;;2.55;;
71771;SDS011;59606;52.138;5.424;2022-09-09T02:26:02;6.07;;;2.72;;
71771;SDS011;59606;52.138;5.424;2022-09-09T02:28:31;6.00;;;2.60;;
71771;SDS011;59606;52.138;5.424;2022-09-09T02:31:03;5.20;;;2.60;;
71771;SDS011;59606;52.138;5.424;2022-09-09T02:33:36;8.60;;;2.97;;
71771;SDS011;59606;52.138;5.424;2022-09-09T02:36:08;8.15;;;3.05;;
71771;SDS011;59606;52.138;5.424;2022-09-09T02:38:39;7.25;;;2.80;;
71771;SDS011;59606;52.138;5.424;2022-09-09T02:41:11;6.22;;;2.80;;
71771;SDS011;59606;52.138;5.424;2022-09-09T02:43:38;4.97;;;2.33;;
71771;SDS011;59606;52.138;5.424;2022-09-09T02:49:03;6.07;;;2.60;;
71771;SDS011;59606;52.138;5.424;2022-09-09T02:51:51;7.22;;;2.75;;
71771;SDS011;59606;52.138;5.424;2022-09-09T02:54:29;6.50;;;2.60;;
71771;SDS011;59606;52.138;5.424;2022-09-09T02:59:43;6.17;;;2.77;;
71771;SDS011;59606;52.138;5.424;2022-09-09T03:02:11;8.15;;;2.90;;
71771;SDS011;59606;52.138;5.424;2022-09-09T03:04:39;8.18;;;2.92;;
71771;SDS011;59606;52.138;5.424;2022-09-09T03:07:09;7.22;;;3.58;;
71771;SDS011;59606;52.138;5.424;2022-09-09T03:09:36;6.05;;;3.13;;
71771;SDS011;59606;52.138;5.424;2022-09-09T03:12:02;8.37;;;3.30;;
71771;SDS011;59606;52.138;5.424;2022-09-09T03:14:30;6.15;;;2.90;;
71771;SDS011;59606;52.138;5.424;2022-09-09T03:16:57;6.18;;;2.80;;
71771;SDS011;59606;52.138;5.424;2022-09-09T03:19:26;8.65;;;3.38;;
71771;SDS011;59606;52.138;5.424;2022-09-09T03:21:53;7.57;;;4.00;;
71771;SDS011;59606;52.138;5.424;2022-09-09T03:24:20;8.17;;;3.90;;
71771;SDS011;59606;52.138;5.424;2022-09-09T03:26:47;8.48;;;3.13;;
71771;SDS011;59606;52.138;5.424;2022-09-09T03:29:13;7.72;;;3.20;;
71771;SDS011;59606;52.138;5.424;2022-09-09T03:31:40;9.10;;;3.67;;
71771;SDS011;59606;52.138;5.424;2022-09-09T03:34:08;6.60;;;3.20;;
71771;SDS011;59606;52.138;5.424;2022-09-09T03:36:35;7.60;;;3.37;;
71771;SDS011;59606;52.138;5.424;2022-09-09T03:39:02;7.75;;;3.80;;
71771;SDS011;59606;52.138;5.424;2022-09-09T03:41:29;9.57;;;3.58;;
71771;SDS011;59606;52.138;5.424;2022-09-09T03:43:56;11.10;;;3.80;;
71771;SDS011;59606;52.138;5.424;2022-09-09T03:46:24;6.90;;;3.63;;
71771;SDS011;59606;52.138;5.424;2022-09-09T03:48:51;7.73;;;3.57;;
71771;SDS011;59606;52.138;5.424;2022-09-09T03:51:18;9.52;;;3.55;;
71771;SDS011;59606;52.138;5.424;2022-09-09T03:53:45;12.27;;;4.32;;
71771;SDS011;59606;52.138;5.424;2022-09-09T03:56:15;7.90;;;3.78;;
71771;SDS011;59606;52.138;5.424;2022-09-09T03:58:41;8.02;;;3.72;;
71771;SDS011;59606;52.138;5.424;2022-09-09T04:01:09;6.27;;;3.40;;
71771;SDS011;59606;52.138;5.424;2022-09-09T04:03:39;12.68;;;3.53;;
71771;SDS011;59606;52.138;5.424;2022-09-09T04:06:07;7.45;;;3.65;;
71771;SDS011;59606;52.138;5.424;2022-09-09T04:08:35;6.53;;;3.53;;
71771;SDS011;59606;52.138;5.424;2022-09-09T04:11:03;7.38;;;3.65;;
71771;SDS011;59606;52.138;5.424;2022-09-09T04:13:33;6.83;;;3.70;;
71771;SDS011;59606;52.138;5.424;2022-09-09T04:16:00;11.10;;;4.03;;
71771;SDS011;59606;52.138;5.424;2022-09-09T04:18:29;10.20;;;4.05;;
71771;SDS011;59606;52.138;5.424;2022-09-09T04:20:56;9.88;;;3.90;;
71771;SDS011;59606;52.138;5.424;2022-09-09T04:23:24;8.18;;;4.30;;
71771;SDS011;59606;52.138;5.424;2022-09-09T04:25:52;6.03;;;3.43;;
71771;SDS011;59606;52.138;5.424;2022-09-09T04:28:21;7.13;;;3.45;;
71771;SDS011;59606;52.138;5.424;2022-09-09T04:30:49;6.10;;;3.65;;
71771;SDS011;59606;52.138;5.424;2022-09-09T04:33:16;7.82;;;3.70;;
71771;SDS011;59606;52.138;5.424;2022-09-09T04:35:46;7.13;;;4.03;;
71771;SDS011;59606;52.138;5.424;2022-09-09T04:38:14;7.17;;;3.63;;
71771;SDS011;59606;52.138;5.424;2022-09-09T04:40:46;11.60;;;4.32;;
71771;SDS011;59606;52.138;5.424;2022-09-09T04:43:13;9.57;;;3.80;;
71771;SDS011;59606;52.138;5.424;2022-09-09T04:45:43;6.97;;;3.80;;
71771;SDS011;59606;52.138;5.424;2022-09-09T04:48:12;7.90;;;3.40;;
71771;SDS011;59606;52.138;5.424;2022-09-09T04:50:39;7.03;;;3.37;;
71771;SDS011;59606;52.138;5.424;2022-09-09T04:53:09;8.70;;;3.40;;
71771;SDS011;59606;52.138;5.424;2022-09-09T04:55:35;5.43;;;2.85;;
71771;SDS011;59606;52.138;5.424;2022-09-09T04:58:05;8.50;;;3.03;;
71771;SDS011;59606;52.138;5.424;2022-09-09T05:00:32;7.60;;;2.90;;
71771;SDS011;59606;52.138;5.424;2022-09-09T05:03:02;10.50;;;2.90;;
71771;SDS011;59606;52.138;5.424;2022-09-09T05:05:30;6.70;;;2.72;;
71771;SDS011;59606;52.138;5.424;2022-09-09T05:08:03;6.47;;;2.92;;
71771;SDS011;59606;52.138;5.424;2022-09-09T05:10:31;11.05;;;3.30;;
71771;SDS011;59606;52.138;5.424;2022-09-09T05:12:59;8.18;;;3.30;;
71771;SDS011;59606;52.138;5.424;2022-09-09T05:15:25;10.53;;;3.03;;
71771;SDS011;59606;52.138;5.424;2022-09-09T05:17:52;7.25;;;2.97;;
71771;SDS011;59606;52.138;5.424;2022-09-09T05:20:19;6.72;;;3.00;;
71771;SDS011;59606;52.138;5.424;2022-09-09T05:22:45;6.88;;;2.58;;
71771;SDS011;59606;52.138;5.424;2022-09-09T05:25:12;7.88;;;2.92;;
71771;SDS011;59606;52.138;5.424;2022-09-09T05:27:38;7.53;;;3.13;;
71771;SDS011;59606;52.138;5.424;2022-09-09T05:30:05;5.93;;;2.80;;
71771;SDS011;59606;52.138;5.424;2022-09-09T05:32:32;6.93;;;2.90;;
71771;SDS011;59606;52.138;5.424;2022-09-09T05:35:02;7.82;;;2.88;;
71771;SDS011;59606;52.138;5.424;2022-09-09T05:37:30;11.60;;;3.30;;
71771;SDS011;59606;52.138;5.424;2022-09-09T05:39:57;6.23;;;2.23;;
71771;SDS011;59606;52.138;5.424;2022-09-09T05:42:24;12.05;;;3.83;;
71771;SDS011;59606;52.138;5.424;2022-09-09T05:44:50;8.35;;;3.38;;
71771;SDS011;59606;52.138;5.424;2022-09-09T05:47:20;9.30;;;3.00;;
71771;SDS011;59606;52.138;5.424;2022-09-09T05:49:46;6.32;;;2.95;;
71771;SDS011;59606;52.138;5.424;2022-09-09T05:52:13;6.60;;;2.80;;
71771;SDS011;59606;52.138;5.424;2022-09-09T05:54:39;7.00;;;2.42;;
71771;SDS011;59606;52.138;5.424;2022-09-09T05:57:06;10.05;;;3.50;;
71771;SDS011;59606;52.138;5.424;2022-09-09T05:59:33;6.68;;;2.63;;
71771;SDS011;59606;52.138;5.424;2022-09-09T06:01:59;7.20;;;2.97;;
71771;SDS011;59606;52.138;5.424;2022-09-09T06:04:26;6.50;;;2.90;;
71771;SDS011;59606;52.138;5.424;2022-09-09T06:06:52;6.75;;;2.60;;
71771;SDS011;59606;52.138;5.424;2022-09-09T06:09:18;10.10;;;3.20;;
71771;SDS011;59606;52.138;5.424;2022-09-09T06:11:45;7.22;;;2.70;;
71771;SDS011;59606;52.138;5.424;2022-09-09T06:14:11;7.40;;;3.15;;
71771;SDS011;59606;52.138;5.424;2022-09-09T06:16:38;8.87;;;2.90;;
71771;SDS011;59606;52.138;5.424;2022-09-09T06:19:05;12.55;;;3.63;;
71771;SDS011;59606;52.138;5.424;2022-09-09T06:21:33;6.20;;;2.67;;
71771;SDS011;59606;52.138;5.424;2022-09-09T06:24:04;7.20;;;3.35;;
71771;SDS011;59606;52.138;5.424;2022-09-09T06:26:37;6.03;;;2.50;;
71771;SDS011;59606;52.138;5.424;2022-09-09T06:29:08;5.87;;;2.53;;
71771;SDS011;59606;52.138;5.424;2022-09-09T06:31:35;8.75;;;2.90;;
71771;SDS011;59606;52.138;5.424;2022-09-09T06:34:06;8.30;;;3.00;;
71771;SDS011;59606;52.138;5.424;2022-09-09T06:36:35;6.88;;;2.58;;
71771;SDS011;59606;52.138;5.424;2022-09-09T06:39:03;9.73;;;2.30;;
71771;SDS011;59606;52.138;5.424;2022-09-09T06:41:34;6.97;;;2.10;;
71771;SDS011;59606;52.138;5.424;2022-09-09T06:44:01;5.45;;;2.28;;
71771;SDS011;59606;52.138;5.424;2022-09-09T06:46:29;11.07;;;3.42;;
71771;SDS011;59606;52.138;5.424;2022-09-09T06:48:58;10.13;;;2.53;;
71771;SDS011;59606;52.138;5.424;2022-09-09T06:51:35;8.73;;;2.53;;
71771;SDS011;59606;52.138;5.424;2022-09-09T06:54:09;8.67;;;2.37;;
71771;SDS011;59606;52.138;5.424;2022-09-09T06:56:38;11.90;;;2.50;;
71771;SDS011;59606;52.138;5.424;2022-09-09T06:59:08;9.25;;;2.63;;
71771;SDS011;59606;52.138;5.424;2022-09-09T07:01:36;6.22;;;2.08;;
71771;SDS011;59606;52.138;5.424;2022-09-09T07:04:04;5.78;;;2.10;;
71771;SDS011;59606;52.138;5.424;2022-09-09T07:06:34;6.00;;;1.80;;
71771;SDS011;59606;52.138;5.424;2022-09-09T07:09:03;6.90;;;2.00;;
71771;SDS011;59606;52.138;5.424;2022-09-09T07:11:32;9.50;;;2.10;;
71771;SDS011;59606;52.138;5.424;2022-09-09T07:14:04;5.82;;;2.00;;
71771;SDS011;59606;52.138;5.424;2022-09-09T07:16:30;10.70;;;2.20;;
71771;SDS011;59606;52.138;5.424;2022-09-09T07:18:59;7.60;;;1.90;;
71771;SDS011;59606;52.138;5.424;2022-09-09T07:21:27;6.18;;;2.15;;
71771;SDS011;59606;52.138;5.424;2022-09-09T07:23:55;6.20;;;1.98;;
71771;SDS011;59606;52.138;5.424;2022-09-09T07:26:23;8.15;;;2.22;;
71771;SDS011;59606;52.138;5.424;2022-09-09T07:28:51;3.60;;;1.58;;
71771;SDS011;59606;52.138;5.424;2022-09-09T07:31:20;5.83;;;1.67;;
71771;SDS011;59606;52.138;5.424;2022-09-09T07:33:49;8.25;;;1.85;;
71771;SDS011;59606;52.138;5.424;2022-09-09T07:36:16;6.20;;;2.20;;
71771;SDS011;59606;52.138;5.424;2022-09-09T07:38:55;6.30;;;1.88;;
71771;SDS011;59606;52.138;5.424;2022-09-09T07:41:25;7.05;;;2.03;;
71771;SDS011;59606;52.138;5.424;2022-09-09T07:44:19;5.87;;;1.70;;
71771;SDS011;59606;52.138;5.424;2022-09-09T07:46:48;7.38;;;2.38;;
71771;SDS011;59606;52.138;5.424;2022-09-09T07:49:15;10.57;;;2.20;;
71771;SDS011;59606;52.138;5.424;2022-09-09T07:51:43;11.30;;;1.65;;
71771;SDS011;59606;52.138;5.424;2022-09-09T07:54:15;7.07;;;2.08;;
71771;SDS011;59606;52.138;5.424;2022-09-09T07:56:43;10.73;;;2.17;;
71771;SDS011;59606;52.138;5.424;2022-09-09T07:59:10;6.05;;;2.67;;
71771;SDS011;59606;52.138;5.424;2022-09-09T08:01:37;6.85;;;1.92;;
71771;SDS011;59606;52.138;5.424;2022-09-09T08:04:10;7.25;;;2.17;;
71771;SDS011;59606;52.138;5.424;2022-09-09T08:06:45;6.43;;;1.70;;
71771;SDS011;59606;52.138;5.424;2022-09-09T08:09:14;8.67;;;1.60;;
71771;SDS011;59606;52.138;5.424;2022-09-09T08:11:41;10.25;;;2.00;;
71771;SDS011;59606;52.138;5.424;2022-09-09T08:14:09;13.18;;;2.65;;
71771;SDS011;59606;52.138;5.424;2022-09-09T08:16:38;7.28;;;1.60;;
71771;SDS011;59606;52.138;5.424;2022-09-09T08:19:06;7.18;;;2.33;;
71771;SDS011;59606;52.138;5.424;2022-09-09T08:21:34;5.33;;;1.67;;
71771;SDS011;59606;52.138;5.424;2022-09-09T08:24:03;4.65;;;1.75;;
71771;SDS011;59606;52.138;5.424;2022-09-09T08:26:32;6.32;;;1.45;;
71771;SDS011;59606;52.138;5.424;2022-09-09T08:29:08;5.13;;;1.38;;
71771;SDS011;59606;52.138;5.424;2022-09-09T08:31:41;9.07;;;1.63;;
71771;SDS011;59606;52.138;5.424;2022-09-09T08:34:11;7.67;;;1.27;;
71771;SDS011;59606;52.138;5.424;2022-09-09T08:36:42;4.53;;;1.70;;
71771;SDS011;59606;52.138;5.424;2022-09-09T08:39:11;8.65;;;1.95;;
71771;SDS011;59606;52.138;5.424;2022-09-09T08:49:48;9.30;;;1.88;;
71771;SDS011;59606;52.138;5.424;2022-09-09T08:52:28;7.57;;;1.58;;
71771;SDS011;59606;52.138;5.424;2022-09-09T08:57:51;7.95;;;1.63;;
71771;SDS011;59606;52.138;5.424;2022-09-09T09:00:20;4.13;;;1.67;;
71771;SDS011;59606;52.138;5.424;2022-09-09T09:05:31;9.55;;;2.17;;
71771;SDS011;59606;52.138;5.424;2022-09-09T09:13:20;3.90;;;1.47;;
71771;SDS011;59606;52.138;5.424;2022-09-09T09:16:01;5.22;;;1.40;;
71771;SDS011;59606;52.138;5.424;2022-09-09T09:18:41;4.65;;;1.60;;
71771;SDS011;59606;52.138;5.424;2022-09-09T09:21:13;6.65;;;1.30;;
71771;SDS011;59606;52.138;5.424;2022-09-09T09:26:30;6.77;;;1.40;;
71771;SDS011;59606;52.138;5.424;2022-09-09T09:28:59;8.50;;;1.63;;
71771;SDS011;59606;52.138;5.424;2022-09-09T09:31:36;8.43;;;1.45;;
71771;SDS011;59606;52.138;5.424;2022-09-09T09:34:02;5.72;;;1.50;;
71771;SDS011;59606;52.138;5.424;2022-09-09T09:36:38;11.52;;;1.48;;
71771;SDS011;59606;52.138;5.424;2022-09-09T09:39:07;6.07;;;1.50;;
71771;SDS011;59606;52.138;5.424;2022-09-09T09:41:55;4.88;;;1.42;;
71771;SDS011;59606;52.138;5.424;2022-09-09T09:46:50;6.35;;;1.30;;
71771;SDS011;59606;52.138;5.424;2022-09-09T09:49:17;6.53;;;2.28;;
71771;SDS011;59606;52.138;5.424;2022-09-09T09:51:44;6.97;;;1.60;;
71771;SDS011;59606;52.138;5.424;2022-09-09T09:56:41;9.18;;;1.30;;
71771;SDS011;59606;52.138;5.424;2022-09-09T10:02:22;4.25;;;1.20;;
71771;SDS011;59606;52.138;5.424;2022-09-09T10:07:41;7.28;;;1.63;;
71771;SDS011;59606;52.138;5.424;2022-09-09T10:10:11;8.13;;;1.80;;
71771;SDS011;59606;52.138;5.424;2022-09-09T10:13:00;10.38;;;2.65;;
71771;SDS011;59606;52.138;5.424;2022-09-09T10:15:52;10.05;;;1.55;;
71771;SDS011;59606;52.138;5.424;2022-09-09T10:18:38;5.10;;;1.50;;
71771;SDS011;59606;52.138;5.424;2022-09-09T10:24:33;6.50;;;1.38;;
71771;SDS011;59606;52.138;5.424;2022-09-09T10:27:18;6.70;;;1.73;;
71771;SDS011;59606;52.138;5.424;2022-09-09T10:32:48;9.33;;;1.20;;
71771;SDS011;59606;52.138;5.424;2022-09-09T10:35:35;7.38;;;1.50;;
71771;SDS011;59606;52.138;5.424;2022-09-09T10:40:39;7.57;;;1.75;;
71771;SDS011;59606;52.138;5.424;2022-09-09T10:51:57;6.85;;;1.77;;
71771;SDS011;59606;52.138;5.424;2022-09-09T10:55:00;6.40;;;1.63;;
71771;SDS011;59606;52.138;5.424;2022-09-09T10:57:45;4.75;;;1.63;;
71771;SDS011;59606;52.138;5.424;2022-09-09T11:03:26;5.55;;;1.92;;
71771;SDS011;59606;52.138;5.424;2022-09-09T11:06:05;7.13;;;1.98;;
71771;SDS011;59606;52.138;5.424;2022-09-09T11:08:38;5.63;;;1.73;;
71771;SDS011;59606;52.138;5.424;2022-09-09T11:16:52;7.82;;;2.00;;
71771;SDS011;59606;52.138;5.424;2022-09-09T11:19:36;7.53;;;2.17;;
71771;SDS011;59606;52.138;5.424;2022-09-09T11:22:07;9.48;;;1.90;;
71771;SDS011;59606;52.138;5.424;2022-09-09T11:27:31;5.07;;;1.43;;
71771;SDS011;59606;52.138;5.424;2022-09-09T11:30:17;3.63;;;1.45;;
71771;SDS011;59606;52.138;5.424;2022-09-09T11:41:13;5.97;;;1.57;;
71771;SDS011;59606;52.138;5.424;2022-09-09T11:43:50;4.25;;;1.30;;
71771;SDS011;59606;52.138;5.424;2022-09-09T11:46:32;4.18;;;1.40;;
71771;SDS011;59606;52.138;5.424;2022-09-09T11:49:03;9.65;;;2.40;;
71771;SDS011;59606;52.138;5.424;2022-09-09T11:51:32;5.38;;;1.58;;
71771;SDS011;59606;52.138;5.424;2022-09-09T11:54:00;5.57;;;1.67;;
71771;SDS011;59606;52.138;5.424;2022-09-09T12:04:05;5.88;;;1.65;;
71771;SDS011;59606;52.138;5.424;2022-09-09T12:06:43;10.37;;;2.00;;
71771;SDS011;59606;52.138;5.424;2022-09-09T12:11:49;7.32;;;1.63;;
71771;SDS011;59606;52.138;5.424;2022-09-09T12:14:35;5.43;;;1.63;;
71771;SDS011;59606;52.138;5.424;2022-09-09T12:17:42;6.43;;;1.90;;
71771;SDS011;59606;52.138;5.424;2022-09-09T12:20:02;4.03;;;2.00;;
71771;SDS011;59606;52.138;5.424;2022-09-09T12:23:02;4.97;;;1.48;;
71771;SDS011;59606;52.138;5.424;2022-09-09T12:25:53;4.07;;;1.63;;
71771;SDS011;59606;52.138;5.424;2022-09-09T12:28:53;8.73;;;2.45;;
71771;SDS011;59606;52.138;5.424;2022-09-09T12:31:25;4.32;;;1.70;;
71771;SDS011;59606;52.138;5.424;2022-09-09T12:37:04;3.88;;;2.10;;
71771;SDS011;59606;52.138;5.424;2022-09-09T12:39:51;5.60;;;1.77;;
71771;SDS011;59606;52.138;5.424;2022-09-09T12:42:22;5.15;;;1.65;;
71771;SDS011;59606;52.138;5.424;2022-09-09T12:47:19;5.67;;;2.37;;
71771;SDS011;59606;52.138;5.424;2022-09-09T12:49:55;6.72;;;1.70;;
71771;SDS011;59606;52.138;5.424;2022-09-09T12:52:27;2.63;;;1.60;;
71771;SDS011;59606;52.138;5.424;2022-09-09T12:54:57;4.75;;;1.90;;
71771;SDS011;59606;52.138;5.424;2022-09-09T12:57:26;7.65;;;2.00;;
71771;SDS011;59606;52.138;5.424;2022-09-09T13:00:15;8.80;;;1.70;;
71771;SDS011;59606;52.138;5.424;2022-09-09T13:02:54;12.93;;;1.90;;
71771;SDS011;59606;52.138;5.424;2022-09-09T13:05:24;5.95;;;1.83;;
71771;SDS011;59606;52.138;5.424;2022-09-09T13:08:06;6.28;;;2.20;;
71771;SDS011;59606;52.138;5.424;2022-09-09T13:13:36;5.50;;;1.30;;
71771;SDS011;59606;52.138;5.424;2022-09-09T13:16:06;5.13;;;1.50;;
71771;SDS011;59606;52.138;5.424;2022-09-09T13:18:44;8.38;;;2.15;;
71771;SDS011;59606;52.138;5.424;2022-09-09T13:21:11;3.30;;;1.50;;
71771;SDS011;59606;52.138;5.424;2022-09-09T13:23:37;3.97;;;1.35;;
71771;SDS011;59606;52.138;5.424;2022-09-09T13:26:23;6.30;;;1.57;;
71771;SDS011;59606;52.138;5.424;2022-09-09T13:28:52;5.82;;;1.50;;
71771;SDS011;59606;52.138;5.424;2022-09-09T13:31:24;5.10;;;1.52;;
71771;SDS011;59606;52.138;5.424;2022-09-09T13:33:55;4.60;;;2.08;;
71771;SDS011;59606;52.138;5.424;2022-09-09T13:36:29;6.05;;;2.05;;
71771;SDS011;59606;52.138;5.424;2022-09-09T13:38:58;5.40;;;1.50;;
71771;SDS011;59606;52.138;5.424;2022-09-09T13:41:42;8.23;;;1.60;;
71771;SDS011;59606;52.138;5.424;2022-09-09T13:44:21;4.68;;;1.55;;
71771;SDS011;59606;52.138;5.424;2022-09-09T13:47:03;7.32;;;1.80;;
71771;SDS011;59606;52.138;5.424;2022-09-09T13:49:35;5.13;;;1.50;;
71771;SDS011;59606;52.138;5.424;2022-09-09T13:52:09;6.57;;;1.80;;
71771;SDS011;59606;52.138;5.424;2022-09-09T13:54:39;5.45;;;1.98;;
71771;SDS011;59606;52.138;5.424;2022-09-09T13:57:26;12.38;;;2.10;;
71771;SDS011;59606;52.138;5.424;2022-09-09T13:59:53;5.00;;;1.58;;
71771;SDS011;59606;52.138;5.424;2022-09-09T14:02:32;5.43;;;1.90;;
71771;SDS011;59606;52.138;5.424;2022-09-09T14:04:59;4.03;;;1.50;;
71771;SDS011;59606;52.138;5.424;2022-09-09T14:07:26;6.30;;;1.88;;
71771;SDS011;59606;52.138;5.424;2022-09-09T14:09:53;3.88;;;1.63;;
71771;SDS011;59606;52.138;5.424;2022-09-09T14:12:19;7.13;;;1.80;;
71771;SDS011;59606;52.138;5.424;2022-09-09T14:14:46;5.65;;;1.60;;
71771;SDS011;59606;52.138;5.424;2022-09-09T14:17:13;4.33;;;1.60;;
71771;SDS011;59606;52.138;5.424;2022-09-09T14:19:40;5.20;;;1.50;;
71771;SDS011;59606;52.138;5.424;2022-09-09T14:22:06;4.07;;;2.03;;
71771;SDS011;59606;52.138;5.424;2022-09-09T14:24:33;4.50;;;1.33;;
71771;SDS011;59606;52.138;5.424;2022-09-09T14:27:00;5.05;;;1.65;;
71771;SDS011;59606;52.138;5.424;2022-09-09T14:29:26;4.77;;;1.73;;
71771;SDS011;59606;52.138;5.424;2022-09-09T14:31:53;6.97;;;2.05;;
71771;SDS011;59606;52.138;5.424;2022-09-09T14:34:19;5.40;;;1.65;;
71771;SDS011;59606;52.138;5.424;2022-09-09T14:36:45;4.00;;;1.60;;
71771;SDS011;59606;52.138;5.424;2022-09-09T14:39:13;5.85;;;2.17;;
71771;SDS011;59606;52.138;5.424;2022-09-09T14:41:39;4.10;;;1.70;;
71771;SDS011;59606;52.138;5.424;2022-09-09T14:44:06;9.85;;;2.08;;
71771;SDS011;59606;52.138;5.424;2022-09-09T14:46:35;6.38;;;2.58;;
71771;SDS011;59606;52.138;5.424;2022-09-09T14:49:02;5.82;;;1.75;;
71771;SDS011;59606;52.138;5.424;2022-09-09T14:51:28;5.22;;;2.00;;
71771;SDS011;59606;52.138;5.424;2022-09-09T14:53:56;7.30;;;2.20;;
71771;SDS011;59606;52.138;5.424;2022-09-09T14:56:25;7.88;;;2.33;;
71771;SDS011;59606;52.138;5.424;2022-09-09T14:58:53;3.25;;;1.92;;
71771;SDS011;59606;52.138;5.424;2022-09-09T15:01:21;5.38;;;2.20;;
71771;SDS011;59606;52.138;5.424;2022-09-09T15:03:49;6.20;;;2.53;;
71771;SDS011;59606;52.138;5.424;2022-09-09T15:06:20;5.60;;;2.20;;
71771;SDS011;59606;52.138;5.424;2022-09-09T15:08:50;6.68;;;2.45;;
71771;SDS011;59606;52.138;5.424;2022-09-09T15:11:18;5.63;;;2.47;;
71771;SDS011;59606;52.138;5.424;2022-09-09T15:13:46;6.45;;;2.42;;
71771;SDS011;59606;52.138;5.424;2022-09-09T15:16:17;3.38;;;2.17;;
71771;SDS011;59606;52.138;5.424;2022-09-09T15:18:44;3.83;;;1.60;;
71771;SDS011;59606;52.138;5.424;2022-09-09T15:21:13;2.72;;;1.40;;
71771;SDS011;59606;52.138;5.424;2022-09-09T15:23:41;4.43;;;1.70;;
71771;SDS011;59606;52.138;5.424;2022-09-09T15:26:09;3.35;;;1.50;;
71771;SDS011;59606;52.138;5.424;2022-09-09T15:28:37;5.28;;;1.48;;
71771;SDS011;59606;52.138;5.424;2022-09-09T15:31:05;4.80;;;1.20;;
71771;SDS011;59606;52.138;5.424;2022-09-09T15:33:49;3.08;;;1.30;;
71771;SDS011;59606;52.138;5.424;2022-09-09T15:36:30;5.65;;;1.38;;
71771;SDS011;59606;52.138;5.424;2022-09-09T15:38:58;4.75;;;1.10;;
71771;SDS011;59606;52.138;5.424;2022-09-09T15:41:26;2.95;;;1.20;;
71771;SDS011;59606;52.138;5.424;2022-09-09T15:43:54;2.83;;;1.13;;
71771;SDS011;59606;52.138;5.424;2022-09-09T15:46:30;4.97;;;1.05;;
71771;SDS011;59606;52.138;5.424;2022-09-09T15:49:09;2.28;;;1.00;;
71771;SDS011;59606;52.138;5.424;2022-09-09T15:51:43;2.65;;;1.10;;
71771;SDS011;59606;52.138;5.424;2022-09-09T15:54:15;4.78;;;1.27;;
71771;SDS011;59606;52.138;5.424;2022-09-09T15:56:44;2.30;;;1.03;;
71771;SDS011;59606;52.138;5.424;2022-09-09T15:59:12;2.35;;;1.00;;
71771;SDS011;59606;52.138;5.424;2022-09-09T16:01:40;3.65;;;1.45;;
71771;SDS011;59606;52.138;5.424;2022-09-09T16:04:08;2.63;;;0.95;;
71771;SDS011;59606;52.138;5.424;2022-09-09T16:06:35;2.35;;;1.02;;
71771;SDS011;59606;52.138;5.424;2022-09-09T16:09:03;3.97;;;1.17;;
71771;SDS011;59606;52.138;5.424;2022-09-09T16:11:32;3.25;;;1.17;;
71771;SDS011;59606;52.138;5.424;2022-09-09T16:14:02;2.45;;;0.90;;
71771;SDS011;59606;52.138;5.424;2022-09-09T16:16:30;5.00;;;1.40;;
71771;SDS011;59606;52.138;5.424;2022-09-09T16:18:57;2.92;;;1.23;;
71771;SDS011;59606;52.138;5.424;2022-09-09T16:21:29;4.60;;;1.50;;
71771;SDS011;59606;52.138;5.424;2022-09-09T16:23:58;3.08;;;0.98;;
71771;SDS011;59606;52.138;5.424;2022-09-09T16:26:27;3.30;;;1.20;;
71771;SDS011;59606;52.138;5.424;2022-09-09T16:28:54;4.38;;;1.20;;
71771;SDS011;59606;52.138;5.424;2022-09-09T16:31:22;3.10;;;1.10;;
71771;SDS011;59606;52.138;5.424;2022-09-09T16:33:50;2.30;;;0.90;;
71771;SDS011;59606;52.138;5.424;2022-09-09T16:36:19;4.38;;;1.40;;
71771;SDS011;59606;52.138;5.424;2022-09-09T16:38:47;2.63;;;1.00;;
71771;SDS011;59606;52.138;5.424;2022-09-09T16:41:14;2.72;;;0.85;;
71771;SDS011;59606;52.138;5.424;2022-09-09T16:43:40;4.32;;;1.30;;
71771;SDS011;59606;52.138;5.424;2022-09-09T16:46:14;3.90;;;1.30;;
71771;SDS011;59606;52.138;5.424;2022-09-09T16:48:43;4.60;;;1.17;;
71771;SDS011;59606;52.138;5.424;2022-09-09T16:51:14;5.30;;;1.20;;
71771;SDS011;59606;52.138;5.424;2022-09-09T16:53:50;3.42;;;1.23;;
71771;SDS011;59606;52.138;5.424;2022-09-09T16:56:18;3.10;;;1.10;;
71771;SDS011;59606;52.138;5.424;2022-09-09T16:58:50;5.73;;;1.90;;
71771;SDS011;59606;52.138;5.424;2022-09-09T17:01:19;5.38;;;1.73;;
71771;SDS011;59606;52.138;5.424;2022-09-09T17:03:45;4.80;;;1.58;;
71771;SDS011;59606;52.138;5.424;2022-09-09T17:06:12;5.47;;;1.30;;
71771;SDS011;59606;52.138;5.424;2022-09-09T17:08:40;5.00;;;1.60;;
71771;SDS011;59606;52.138;5.424;2022-09-09T17:11:11;4.40;;;1.50;;
71771;SDS011;59606;52.138;5.424;2022-09-09T17:13:40;4.97;;;1.48;;
71771;SDS011;59606;52.138;5.424;2022-09-09T17:16:08;3.85;;;1.63;;
71771;SDS011;59606;52.138;5.424;2022-09-09T17:18:35;3.05;;;1.35;;
71771;SDS011;59606;52.138;5.424;2022-09-09T17:21:13;2.85;;;1.42;;
71771;SDS011;59606;52.138;5.424;2022-09-09T17:23:41;4.73;;;1.80;;
71771;SDS011;59606;52.138;5.424;2022-09-09T17:26:09;5.15;;;1.65;;
71771;SDS011;59606;52.138;5.424;2022-09-09T17:28:38;6.35;;;1.80;;